ソチ の空港の天気 - METARとTAF

ソチ空港 ( URSS / AER ) - ロシア ソチ
飛行場実況気象(Metar)
観測時間04/26 14:00 MSK (04/26 11:00 UTC)
風向・風速西 4m/s
視程10km以上
天気現象
なし
気温23℃
湿度38%
気圧1015hPa
METARURSS 261100Z 26004MPS 9999 NSC 23/08 Q1015 R02/090070 R06/090070 RMK R06/27004MPS QFE760
過去の天気等 Google飛行場航空写真 Wunderground天気予報

過去48時間のMETAR

飛行場予報(TAF)
発表時間: 4/26 10:55 MSK (4/26 07:55 UTC)
予報対象時間: 26日12時 MSK ~ 27日12時 MSK
風向・風速西 5m/s 瞬間風速 10m/s
視程10km以上
なし
26日17時 MSK ~ 26日18時 MSK に徐々に
風向・風速北西 5m/s 瞬間風速 10m/s
26日20時 MSK ~ 26日21時 MSK に徐々に
風向・風速北東 6m/s
27日9時 MSK ~ 27日10時 MSK に徐々に
風向・風速西 5m/s 瞬間風速 10m/s
TAF URSS 260755Z 2609/2709 28005G10MPS 9999 NSC
BECMG 2614/2615 31005G10MPS
BECMG 2617/2618 05006MPS
BECMG 2706/2707 28005G10MPS